sensor_id;sensor_type;location;lat;lon;timestamp;temperature;humidity
40534;DHT22;26233;51.894;10.192;2023-04-24T00:02:01;15.50;36.80
40534;DHT22;26233;51.894;10.192;2023-04-24T00:04:29;15.40;36.70
40534;DHT22;26233;51.894;10.192;2023-04-24T00:06:57;15.40;36.90
40534;DHT22;26233;51.894;10.192;2023-04-24T00:09:27;15.40;37.00
40534;DHT22;26233;51.894;10.192;2023-04-24T00:11:54;15.30;37.00
40534;DHT22;26233;51.894;10.192;2023-04-24T00:14:21;15.20;37.10
40534;DHT22;26233;51.894;10.192;2023-04-24T00:16:48;15.20;37.10
40534;DHT22;26233;51.894;10.192;2023-04-24T00:19:15;15.20;37.10
40534;DHT22;26233;51.894;10.192;2023-04-24T00:21:43;15.10;37.20
40534;DHT22;26233;51.894;10.192;2023-04-24T00:24:11;15.10;37.20
40534;DHT22;26233;51.894;10.192;2023-04-24T00:26:39;15.10;37.30
40534;DHT22;26233;51.894;10.192;2023-04-24T00:29:07;15.00;37.20
40534;DHT22;26233;51.894;10.192;2023-04-24T00:31:34;15.00;37.20
40534;DHT22;26233;51.894;10.192;2023-04-24T00:34:01;15.00;37.40
40534;DHT22;26233;51.894;10.192;2023-04-24T00:36:28;15.00;37.40
40534;DHT22;26233;51.894;10.192;2023-04-24T00:38:56;15.00;37.60
40534;DHT22;26233;51.894;10.192;2023-04-24T00:41:24;14.90;37.50
40534;DHT22;26233;51.894;10.192;2023-04-24T00:43:53;14.90;37.50
40534;DHT22;26233;51.894;10.192;2023-04-24T00:46:20;14.90;37.60
40534;DHT22;26233;51.894;10.192;2023-04-24T00:48:48;14.90;37.50
40534;DHT22;26233;51.894;10.192;2023-04-24T00:51:15;14.90;37.60
40534;DHT22;26233;51.894;10.192;2023-04-24T00:53:42;14.80;37.70
40534;DHT22;26233;51.894;10.192;2023-04-24T00:56:09;14.80;37.50
40534;DHT22;26233;51.894;10.192;2023-04-24T00:58:36;14.80;37.70
40534;DHT22;26233;51.894;10.192;2023-04-24T01:01:06;14.80;37.80
40534;DHT22;26233;51.894;10.192;2023-04-24T01:03:33;14.80;37.90
40534;DHT22;26233;51.894;10.192;2023-04-24T01:06:05;14.70;37.90
40534;DHT22;26233;51.894;10.192;2023-04-24T01:08:34;14.70;38.00
40534;DHT22;26233;51.894;10.192;2023-04-24T01:11:03;14.70;37.90
40534;DHT22;26233;51.894;10.192;2023-04-24T01:13:32;14.70;37.90
40534;DHT22;26233;51.894;10.192;2023-04-24T01:15:59;14.60;37.80
40534;DHT22;26233;51.894;10.192;2023-04-24T01:18:28;14.60;37.80
40534;DHT22;26233;51.894;10.192;2023-04-24T01:20:58;14.60;37.90
40534;DHT22;26233;51.894;10.192;2023-04-24T01:23:27;14.60;38.00
40534;DHT22;26233;51.894;10.192;2023-04-24T01:25:57;14.50;37.90
40534;DHT22;26233;51.894;10.192;2023-04-24T01:28:24;14.50;37.90
40534;DHT22;26233;51.894;10.192;2023-04-24T01:30:51;14.50;38.00
40534;DHT22;26233;51.894;10.192;2023-04-24T01:33:21;14.50;38.00
40534;DHT22;26233;51.894;10.192;2023-04-24T01:35:48;14.50;38.20
40534;DHT22;26233;51.894;10.192;2023-04-24T01:38:16;14.40;38.00
40534;DHT22;26233;51.894;10.192;2023-04-24T01:40:44;14.50;38.20
40534;DHT22;26233;51.894;10.192;2023-04-24T01:43:12;14.40;38.10
40534;DHT22;26233;51.894;10.192;2023-04-24T01:45:39;14.40;38.20
40534;DHT22;26233;51.894;10.192;2023-04-24T01:48:07;14.30;38.10
40534;DHT22;26233;51.894;10.192;2023-04-24T01:50:34;14.40;38.20
40534;DHT22;26233;51.894;10.192;2023-04-24T01:53:01;14.30;38.20
40534;DHT22;26233;51.894;10.192;2023-04-24T01:55:28;14.30;38.20
40534;DHT22;26233;51.894;10.192;2023-04-24T01:57:57;14.30;38.20
40534;DHT22;26233;51.894;10.192;2023-04-24T02:00:24;14.30;38.30
40534;DHT22;26233;51.894;10.192;2023-04-24T02:02:51;14.20;38.20
40534;DHT22;26233;51.894;10.192;2023-04-24T02:05:18;14.20;38.20
40534;DHT22;26233;51.894;10.192;2023-04-24T02:07:46;14.20;38.20
40534;DHT22;26233;51.894;10.192;2023-04-24T02:10:13;14.20;38.20
40534;DHT22;26233;51.894;10.192;2023-04-24T02:12:40;14.20;38.20
40534;DHT22;26233;51.894;10.192;2023-04-24T02:15:09;14.20;38.10
40534;DHT22;26233;51.894;10.192;2023-04-24T02:17:37;14.20;38.20
40534;DHT22;26233;51.894;10.192;2023-04-24T02:20:05;14.10;38.00
40534;DHT22;26233;51.894;10.192;2023-04-24T02:22:33;14.10;38.00
40534;DHT22;26233;51.894;10.192;2023-04-24T02:25:00;14.10;38.10
40534;DHT22;26233;51.894;10.192;2023-04-24T02:27:27;14.10;38.10
40534;DHT22;26233;51.894;10.192;2023-04-24T02:29:54;14.10;38.10
40534;DHT22;26233;51.894;10.192;2023-04-24T02:32:23;14.10;38.10
40534;DHT22;26233;51.894;10.192;2023-04-24T02:34:50;14.00;38.00
40534;DHT22;26233;51.894;10.192;2023-04-24T02:37:17;14.00;38.10
40534;DHT22;26233;51.894;10.192;2023-04-24T02:39:46;14.00;38.10
40534;DHT22;26233;51.894;10.192;2023-04-24T02:42:16;14.00;38.10
40534;DHT22;26233;51.894;10.192;2023-04-24T02:44:43;13.90;38.10
40534;DHT22;26233;51.894;10.192;2023-04-24T02:47:10;13.90;38.20
40534;DHT22;26233;51.894;10.192;2023-04-24T02:49:38;13.90;38.20
40534;DHT22;26233;51.894;10.192;2023-04-24T02:52:05;13.90;38.30
40534;DHT22;26233;51.894;10.192;2023-04-24T02:54:32;13.90;38.30
40534;DHT22;26233;51.894;10.192;2023-04-24T02:56:59;13.90;38.40
40534;DHT22;26233;51.894;10.192;2023-04-24T02:59:26;13.90;39.00
40534;DHT22;26233;51.894;10.192;2023-04-24T03:01:54;13.90;38.40
40534;DHT22;26233;51.894;10.192;2023-04-24T03:04:21;13.80;38.40
40534;DHT22;26233;51.894;10.192;2023-04-24T03:06:50;13.80;38.60
40534;DHT22;26233;51.894;10.192;2023-04-24T03:09:21;13.80;38.60
40534;DHT22;26233;51.894;10.192;2023-04-24T03:11:50;13.80;38.60
40534;DHT22;26233;51.894;10.192;2023-04-24T03:14:17;13.80;38.60
40534;DHT22;26233;51.894;10.192;2023-04-24T03:16:44;13.80;38.70
40534;DHT22;26233;51.894;10.192;2023-04-24T03:19:11;13.80;38.70
40534;DHT22;26233;51.894;10.192;2023-04-24T03:21:39;13.70;38.60
40534;DHT22;26233;51.894;10.192;2023-04-24T03:24:07;13.70;38.60
40534;DHT22;26233;51.894;10.192;2023-04-24T03:26:36;13.70;38.80
40534;DHT22;26233;51.894;10.192;2023-04-24T03:29:06;13.70;38.80
40534;DHT22;26233;51.894;10.192;2023-04-24T03:31:35;13.70;38.70
40534;DHT22;26233;51.894;10.192;2023-04-24T03:34:02;13.60;38.70
40534;DHT22;26233;51.894;10.192;2023-04-24T03:36:30;13.60;38.80
40534;DHT22;26233;51.894;10.192;2023-04-24T03:38:59;13.60;38.90
40534;DHT22;26233;51.894;10.192;2023-04-24T03:41:28;13.60;38.90
40534;DHT22;26233;51.894;10.192;2023-04-24T03:43:56;13.60;38.90
40534;DHT22;26233;51.894;10.192;2023-04-24T03:46:25;13.60;38.90
40534;DHT22;26233;51.894;10.192;2023-04-24T03:48:52;13.60;39.00
40534;DHT22;26233;51.894;10.192;2023-04-24T03:51:19;13.60;38.90
40534;DHT22;26233;51.894;10.192;2023-04-24T03:53:47;13.60;39.00
40534;DHT22;26233;51.894;10.192;2023-04-24T03:56:14;13.70;39.10
40534;DHT22;26233;51.894;10.192;2023-04-24T03:58:42;13.60;39.10
40534;DHT22;26233;51.894;10.192;2023-04-24T04:01:09;13.60;39.10
40534;DHT22;26233;51.894;10.192;2023-04-24T04:03:44;13.60;39.20
40534;DHT22;26233;51.894;10.192;2023-04-24T04:06:13;13.60;39.20
40534;DHT22;26233;51.894;10.192;2023-04-24T04:08:40;13.60;39.20
40534;DHT22;26233;51.894;10.192;2023-04-24T04:11:07;13.60;39.30
40534;DHT22;26233;51.894;10.192;2023-04-24T04:13:35;13.70;39.40
40534;DHT22;26233;51.894;10.192;2023-04-24T04:16:05;13.70;39.40
40534;DHT22;26233;51.894;10.192;2023-04-24T04:18:33;13.70;39.40
40534;DHT22;26233;51.894;10.192;2023-04-24T04:21:00;13.70;39.40
40534;DHT22;26233;51.894;10.192;2023-04-24T04:23:27;13.70;39.40
40534;DHT22;26233;51.894;10.192;2023-04-24T04:25:58;13.70;39.90
40534;DHT22;26233;51.894;10.192;2023-04-24T04:28:25;13.70;39.40
40534;DHT22;26233;51.894;10.192;2023-04-24T04:30:52;13.70;39.50
40534;DHT22;26233;51.894;10.192;2023-04-24T04:33:22;13.80;39.50
40534;DHT22;26233;51.894;10.192;2023-04-24T04:35:49;13.80;39.60
40534;DHT22;26233;51.894;10.192;2023-04-24T04:38:17;13.80;39.60
40534;DHT22;26233;51.894;10.192;2023-04-24T04:40:45;13.80;39.60
40534;DHT22;26233;51.894;10.192;2023-04-24T04:43:12;13.80;39.60
40534;DHT22;26233;51.894;10.192;2023-04-24T04:45:40;13.80;39.60
40534;DHT22;26233;51.894;10.192;2023-04-24T04:48:08;13.80;39.60
40534;DHT22;26233;51.894;10.192;2023-04-24T04:50:39;13.80;39.60
40534;DHT22;26233;51.894;10.192;2023-04-24T04:53:06;13.80;39.70
40534;DHT22;26233;51.894;10.192;2023-04-24T04:55:33;13.80;39.70
40534;DHT22;26233;51.894;10.192;2023-04-24T04:58:00;13.80;39.70
40534;DHT22;26233;51.894;10.192;2023-04-24T05:00:28;13.80;39.90
40534;DHT22;26233;51.894;10.192;2023-04-24T05:02:59;13.80;39.90
40534;DHT22;26233;51.894;10.192;2023-04-24T05:05:27;13.80;39.90
40534;DHT22;26233;51.894;10.192;2023-04-24T05:07:57;13.80;39.90
40534;DHT22;26233;51.894;10.192;2023-04-24T05:10:24;13.80;40.00
40534;DHT22;26233;51.894;10.192;2023-04-24T05:12:51;13.80;40.00
40534;DHT22;26233;51.894;10.192;2023-04-24T05:15:18;13.90;40.30
40534;DHT22;26233;51.894;10.192;2023-04-24T05:17:45;13.90;40.30
40534;DHT22;26233;51.894;10.192;2023-04-24T05:20:14;13.90;40.20
40534;DHT22;26233;51.894;10.192;2023-04-24T05:22:42;13.90;40.20
40534;DHT22;26233;51.894;10.192;2023-04-24T05:25:10;14.00;41.40
40534;DHT22;26233;51.894;10.192;2023-04-24T05:27:38;14.00;41.10
40534;DHT22;26233;51.894;10.192;2023-04-24T05:30:06;13.90;40.80
40534;DHT22;26233;51.894;10.192;2023-04-24T05:32:34;14.00;40.80
40534;DHT22;26233;51.894;10.192;2023-04-24T05:35:02;14.00;40.80
40534;DHT22;26233;51.894;10.192;2023-04-24T05:37:29;14.00;40.90
40534;DHT22;26233;51.894;10.192;2023-04-24T05:39:56;14.00;40.90
40534;DHT22;26233;51.894;10.192;2023-04-24T05:42:24;14.10;41.10
40534;DHT22;26233;51.894;10.192;2023-04-24T05:44:51;14.10;41.10
40534;DHT22;26233;51.894;10.192;2023-04-24T05:47:19;14.10;41.00
40534;DHT22;26233;51.894;10.192;2023-04-24T05:49:47;14.20;41.20
40534;DHT22;26233;51.894;10.192;2023-04-24T05:52:14;14.20;41.20
40534;DHT22;26233;51.894;10.192;2023-04-24T05:54:41;14.20;41.30
40534;DHT22;26233;51.894;10.192;2023-04-24T05:57:10;14.30;41.40
40534;DHT22;26233;51.894;10.192;2023-04-24T05:59:39;14.30;41.20
40534;DHT22;26233;51.894;10.192;2023-04-24T06:02:07;14.30;41.30
40534;DHT22;26233;51.894;10.192;2023-04-24T06:04:34;14.30;41.20
40534;DHT22;26233;51.894;10.192;2023-04-24T06:07:01;14.40;41.20
40534;DHT22;26233;51.894;10.192;2023-04-24T06:09:28;14.40;41.20
40534;DHT22;26233;51.894;10.192;2023-04-24T06:11:55;14.40;41.20
40534;DHT22;26233;51.894;10.192;2023-04-24T06:14:22;14.40;41.30
40534;DHT22;26233;51.894;10.192;2023-04-24T06:16:51;14.40;41.50
40534;DHT22;26233;51.894;10.192;2023-04-24T06:19:18;14.40;41.50
40534;DHT22;26233;51.894;10.192;2023-04-24T06:21:45;14.50;41.50
40534;DHT22;26233;51.894;10.192;2023-04-24T06:24:14;14.50;41.40
40534;DHT22;26233;51.894;10.192;2023-04-24T06:26:42;14.60;41.60
40534;DHT22;26233;51.894;10.192;2023-04-24T06:29:09;14.60;41.40
40534;DHT22;26233;51.894;10.192;2023-04-24T06:31:36;14.60;41.30
40534;DHT22;26233;51.894;10.192;2023-04-24T06:34:04;14.60;41.20
40534;DHT22;26233;51.894;10.192;2023-04-24T06:36:32;14.60;41.20
40534;DHT22;26233;51.894;10.192;2023-04-24T06:39:00;14.60;41.30
40534;DHT22;26233;51.894;10.192;2023-04-24T06:41:28;14.60;41.20
40534;DHT22;26233;51.894;10.192;2023-04-24T06:43:55;14.60;41.30
40534;DHT22;26233;51.894;10.192;2023-04-24T06:46:22;14.70;41.40
40534;DHT22;26233;51.894;10.192;2023-04-24T06:48:51;14.70;41.40
40534;DHT22;26233;51.894;10.192;2023-04-24T06:51:22;14.70;41.30
40534;DHT22;26233;51.894;10.192;2023-04-24T06:53:50;14.70;41.30
40534;DHT22;26233;51.894;10.192;2023-04-24T06:56:18;14.60;41.10
40534;DHT22;26233;51.894;10.192;2023-04-24T06:58:45;14.60;41.30
40534;DHT22;26233;51.894;10.192;2023-04-24T07:01:12;14.50;42.00
40534;DHT22;26233;51.894;10.192;2023-04-24T07:03:39;14.60;41.60
40534;DHT22;26233;51.894;10.192;2023-04-24T07:06:06;14.30;41.40
40534;DHT22;26233;51.894;10.192;2023-04-24T07:08:35;14.20;41.10
40534;DHT22;26233;51.894;10.192;2023-04-24T07:11:02;14.20;41.00
40534;DHT22;26233;51.894;10.192;2023-04-24T07:13:30;14.00;40.90
40534;DHT22;26233;51.894;10.192;2023-04-24T07:15:57;13.90;40.90
40534;DHT22;26233;51.894;10.192;2023-04-24T07:18:24;13.80;41.00
40534;DHT22;26233;51.894;10.192;2023-04-24T07:20:51;13.80;41.10
40534;DHT22;26233;51.894;10.192;2023-04-24T07:23:18;13.80;41.30
40534;DHT22;26233;51.894;10.192;2023-04-24T07:25:47;13.70;41.30
40534;DHT22;26233;51.894;10.192;2023-04-24T07:28:14;13.60;41.30
40534;DHT22;26233;51.894;10.192;2023-04-24T07:30:43;13.60;41.60
40534;DHT22;26233;51.894;10.192;2023-04-24T07:33:10;13.60;42.30
40534;DHT22;26233;51.894;10.192;2023-04-24T07:35:38;13.60;41.80
40534;DHT22;26233;51.894;10.192;2023-04-24T07:38:05;13.60;41.90
40534;DHT22;26233;51.894;10.192;2023-04-24T07:40:32;13.70;42.20
40534;DHT22;26233;51.894;10.192;2023-04-24T07:43:01;13.60;42.20
40534;DHT22;26233;51.894;10.192;2023-04-24T07:45:28;13.70;42.30
40534;DHT22;26233;51.894;10.192;2023-04-24T07:47:56;13.70;42.20
40534;DHT22;26233;51.894;10.192;2023-04-24T07:50:23;13.80;42.20
40534;DHT22;26233;51.894;10.192;2023-04-24T07:52:50;13.80;42.30
40534;DHT22;26233;51.894;10.192;2023-04-24T07:55:17;14.10;43.60
40534;DHT22;26233;51.894;10.192;2023-04-24T07:57:44;14.40;44.40
40534;DHT22;26233;51.894;10.192;2023-04-24T08:00:14;14.70;43.90
40534;DHT22;26233;51.894;10.192;2023-04-24T08:02:41;14.90;42.80
40534;DHT22;26233;51.894;10.192;2023-04-24T08:05:08;15.00;42.10
40534;DHT22;26233;51.894;10.192;2023-04-24T08:07:36;15.10;41.90
40534;DHT22;26233;51.894;10.192;2023-04-24T08:10:03;15.10;42.20
40534;DHT22;26233;51.894;10.192;2023-04-24T08:12:31;15.20;41.90
40534;DHT22;26233;51.894;10.192;2023-04-24T08:14:58;15.40;42.10
40534;DHT22;26233;51.894;10.192;2023-04-24T08:17:27;15.50;42.20
40534;DHT22;26233;51.894;10.192;2023-04-24T08:19:54;15.70;42.00
40534;DHT22;26233;51.894;10.192;2023-04-24T08:22:27;15.80;41.60
40534;DHT22;26233;51.894;10.192;2023-04-24T08:24:54;15.80;41.20
40534;DHT22;26233;51.894;10.192;2023-04-24T08:27:21;15.90;41.90
40534;DHT22;26233;51.894;10.192;2023-04-24T08:29:48;15.90;41.20
40534;DHT22;26233;51.894;10.192;2023-04-24T08:32:16;16.00;41.80
40534;DHT22;26233;51.894;10.192;2023-04-24T08:34:45;16.10;41.20
40534;DHT22;26233;51.894;10.192;2023-04-24T08:37:12;16.10;41.20
40534;DHT22;26233;51.894;10.192;2023-04-24T08:39:39;16.30;41.50
40534;DHT22;26233;51.894;10.192;2023-04-24T08:42:06;16.70;42.60
40534;DHT22;26233;51.894;10.192;2023-04-24T08:44:34;17.20;43.50
40534;DHT22;26233;51.894;10.192;2023-04-24T08:47:02;17.90;44.00
40534;DHT22;26233;51.894;10.192;2023-04-24T08:49:29;18.50;43.90
40534;DHT22;26233;51.894;10.192;2023-04-24T08:51:59;19.10;42.20
40534;DHT22;26233;51.894;10.192;2023-04-24T08:54:27;19.60;41.70
40534;DHT22;26233;51.894;10.192;2023-04-24T08:56:59;20.00;40.80
40534;DHT22;26233;51.894;10.192;2023-04-24T08:59:27;20.30;40.50
40534;DHT22;26233;51.894;10.192;2023-04-24T09:01:55;20.60;40.00
40534;DHT22;26233;51.894;10.192;2023-04-24T09:04:23;20.90;40.10
40534;DHT22;26233;51.894;10.192;2023-04-24T09:06:51;21.10;39.50
40534;DHT22;26233;51.894;10.192;2023-04-24T09:09:20;21.40;39.20
40534;DHT22;26233;51.894;10.192;2023-04-24T09:11:49;21.60;38.30
40534;DHT22;26233;51.894;10.192;2023-04-24T09:14:17;21.80;38.20
40534;DHT22;26233;51.894;10.192;2023-04-24T09:16:44;21.90;37.10
40534;DHT22;26233;51.894;10.192;2023-04-24T09:19:11;22.00;37.60
40534;DHT22;26233;51.894;10.192;2023-04-24T09:21:38;22.10;37.50
40534;DHT22;26233;51.894;10.192;2023-04-24T09:24:14;22.30;37.20
40534;DHT22;26233;51.894;10.192;2023-04-24T09:26:44;22.40;37.00
40534;DHT22;26233;51.894;10.192;2023-04-24T09:29:14;22.50;36.30
40534;DHT22;26233;51.894;10.192;2023-04-24T09:31:43;22.50;37.10
40534;DHT22;26233;51.894;10.192;2023-04-24T09:34:10;22.60;36.40
40534;DHT22;26233;51.894;10.192;2023-04-24T09:36:38;22.40;34.70
40534;DHT22;26233;51.894;10.192;2023-04-24T09:39:07;22.10;34.10
40534;DHT22;26233;51.894;10.192;2023-04-24T09:41:44;21.70;33.70
40534;DHT22;26233;51.894;10.192;2023-04-24T09:44:13;21.20;33.20
40534;DHT22;26233;51.894;10.192;2023-04-24T09:46:41;20.60;33.10
40534;DHT22;26233;51.894;10.192;2023-04-24T09:49:10;20.10;32.90
40534;DHT22;26233;51.894;10.192;2023-04-24T09:51:39;19.60;33.60
40534;DHT22;26233;51.894;10.192;2023-04-24T09:54:13;19.20;33.00
40534;DHT22;26233;51.894;10.192;2023-04-24T09:56:44;18.70;33.00
40534;DHT22;26233;51.894;10.192;2023-04-24T09:59:13;18.30;32.90
40534;DHT22;26233;51.894;10.192;2023-04-24T10:01:41;17.80;33.00
40534;DHT22;26233;51.894;10.192;2023-04-24T10:04:20;17.50;33.20
40534;DHT22;26233;51.894;10.192;2023-04-24T10:06:50;17.20;33.20
40534;DHT22;26233;51.894;10.192;2023-04-24T10:09:19;16.90;33.50
40534;DHT22;26233;51.894;10.192;2023-04-24T10:11:50;16.70;33.80
40534;DHT22;26233;51.894;10.192;2023-04-24T10:14:20;16.50;33.90
40534;DHT22;26233;51.894;10.192;2023-04-24T10:16:49;16.30;33.90
40534;DHT22;26233;51.894;10.192;2023-04-24T10:19:17;16.10;34.00
40534;DHT22;26233;51.894;10.192;2023-04-24T10:21:45;16.00;34.00
40534;DHT22;26233;51.894;10.192;2023-04-24T10:24:13;15.80;34.00
40534;DHT22;26233;51.894;10.192;2023-04-24T10:26:42;15.70;34.30
40534;DHT22;26233;51.894;10.192;2023-04-24T10:29:12;15.60;34.40
40534;DHT22;26233;51.894;10.192;2023-04-24T10:31:40;15.50;34.50
40534;DHT22;26233;51.894;10.192;2023-04-24T10:34:11;15.30;34.50
40534;DHT22;26233;51.894;10.192;2023-04-24T10:36:40;15.20;34.50
40534;DHT22;26233;51.894;10.192;2023-04-24T10:39:11;15.20;34.70
40534;DHT22;26233;51.894;10.192;2023-04-24T10:41:40;15.20;35.00
40534;DHT22;26233;51.894;10.192;2023-04-24T10:44:07;15.10;34.90
40534;DHT22;26233;51.894;10.192;2023-04-24T10:46:37;15.10;35.10
40534;DHT22;26233;51.894;10.192;2023-04-24T10:49:05;15.10;35.20
40534;DHT22;26233;51.894;10.192;2023-04-24T10:51:46;15.20;35.30
40534;DHT22;26233;51.894;10.192;2023-04-24T10:54:26;15.00;35.00
40534;DHT22;26233;51.894;10.192;2023-04-24T10:57:13;15.20;35.10
40534;DHT22;26233;51.894;10.192;2023-04-24T11:00:13;15.20;35.10
40534;DHT22;26233;51.894;10.192;2023-04-24T11:02:46;15.20;35.10
40534;DHT22;26233;51.894;10.192;2023-04-24T11:05:19;15.20;35.10
40534;DHT22;26233;51.894;10.192;2023-04-24T11:08:12;15.10;34.90
40534;DHT22;26233;51.894;10.192;2023-04-24T11:10:44;15.10;35.00
40534;DHT22;26233;51.894;10.192;2023-04-24T11:13:15;15.00;35.00
40534;DHT22;26233;51.894;10.192;2023-04-24T11:15:42;15.00;35.00
40534;DHT22;26233;51.894;10.192;2023-04-24T11:18:14;14.90;34.90
40534;DHT22;26233;51.894;10.192;2023-04-24T11:20:43;14.90;35.00
40534;DHT22;26233;51.894;10.192;2023-04-24T11:23:12;14.90;35.00
40534;DHT22;26233;51.894;10.192;2023-04-24T11:25:41;14.80;35.10
40534;DHT22;26233;51.894;10.192;2023-04-24T11:28:14;14.80;35.20
40534;DHT22;26233;51.894;10.192;2023-04-24T11:30:42;14.80;35.40
40534;DHT22;26233;51.894;10.192;2023-04-24T11:33:09;14.80;35.60
40534;DHT22;26233;51.894;10.192;2023-04-24T11:35:40;14.90;35.70
40534;DHT22;26233;51.894;10.192;2023-04-24T11:38:07;14.90;35.70
40534;DHT22;26233;51.894;10.192;2023-04-24T11:40:37;15.00;35.80
40534;DHT22;26233;51.894;10.192;2023-04-24T11:43:04;15.00;35.80
40534;DHT22;26233;51.894;10.192;2023-04-24T11:45:31;15.00;35.80
40534;DHT22;26233;51.894;10.192;2023-04-24T11:47:58;15.10;35.90
40534;DHT22;26233;51.894;10.192;2023-04-24T11:50:27;15.10;36.00
40534;DHT22;26233;51.894;10.192;2023-04-24T11:52:56;15.20;36.40
40534;DHT22;26233;51.894;10.192;2023-04-24T11:55:26;15.30;36.60
40534;DHT22;26233;51.894;10.192;2023-04-24T11:57:55;15.40;36.70
40534;DHT22;26233;51.894;10.192;2023-04-24T12:00:25;15.50;36.60
40534;DHT22;26233;51.894;10.192;2023-04-24T12:03:04;15.60;36.40
40534;DHT22;26233;51.894;10.192;2023-04-24T12:05:32;15.70;36.20
40534;DHT22;26233;51.894;10.192;2023-04-24T12:08:01;15.80;36.00
40534;DHT22;26233;51.894;10.192;2023-04-24T12:10:30;15.70;35.70
40534;DHT22;26233;51.894;10.192;2023-04-24T12:12:58;15.70;35.70
40534;DHT22;26233;51.894;10.192;2023-04-24T12:15:26;15.70;35.60
40534;DHT22;26233;51.894;10.192;2023-04-24T12:17:55;15.50;35.70
40534;DHT22;26233;51.894;10.192;2023-04-24T12:20:28;15.40;35.90
40534;DHT22;26233;51.894;10.192;2023-04-24T12:22:57;15.30;36.00
40534;DHT22;26233;51.894;10.192;2023-04-24T12:25:28;15.30;36.50
40534;DHT22;26233;51.894;10.192;2023-04-24T12:28:09;15.30;36.90
40534;DHT22;26233;51.894;10.192;2023-04-24T12:30:40;15.30;37.30
40534;DHT22;26233;51.894;10.192;2023-04-24T12:33:10;15.30;36.60
40534;DHT22;26233;51.894;10.192;2023-04-24T12:35:37;15.30;36.50
40534;DHT22;26233;51.894;10.192;2023-04-24T12:38:07;15.20;36.20
40534;DHT22;26233;51.894;10.192;2023-04-24T12:40:36;15.20;36.40
40534;DHT22;26233;51.894;10.192;2023-04-24T12:43:13;15.00;36.20
40534;DHT22;26233;51.894;10.192;2023-04-24T12:45:41;14.80;36.10
40534;DHT22;26233;51.894;10.192;2023-04-24T12:48:08;14.60;35.90
40534;DHT22;26233;51.894;10.192;2023-04-24T12:50:35;14.50;36.20
40534;DHT22;26233;51.894;10.192;2023-04-24T12:53:02;14.30;36.30
40534;DHT22;26233;51.894;10.192;2023-04-24T12:55:29;14.30;36.70
40534;DHT22;26233;51.894;10.192;2023-04-24T12:57:57;14.20;36.60
40534;DHT22;26233;51.894;10.192;2023-04-24T13:00:24;14.20;36.70
40534;DHT22;26233;51.894;10.192;2023-04-24T13:02:51;14.10;36.50
40534;DHT22;26233;51.894;10.192;2023-04-24T13:05:19;14.00;36.40
40534;DHT22;26233;51.894;10.192;2023-04-24T13:07:46;14.00;36.40
40534;DHT22;26233;51.894;10.192;2023-04-24T13:10:13;13.90;36.40
40534;DHT22;26233;51.894;10.192;2023-04-24T13:12:40;13.90;36.50
40534;DHT22;26233;51.894;10.192;2023-04-24T13:15:12;13.90;36.70
40534;DHT22;26233;51.894;10.192;2023-04-24T13:17:39;14.00;36.70
40534;DHT22;26233;51.894;10.192;2023-04-24T13:20:07;13.90;36.50
40534;DHT22;26233;51.894;10.192;2023-04-24T13:22:34;13.80;36.40
40534;DHT22;26233;51.894;10.192;2023-04-24T13:25:02;13.80;36.40
40534;DHT22;26233;51.894;10.192;2023-04-24T13:27:31;13.70;36.30
40534;DHT22;26233;51.894;10.192;2023-04-24T13:29:58;13.60;36.30
40534;DHT22;26233;51.894;10.192;2023-04-24T13:32:27;13.60;36.40
40534;DHT22;26233;51.894;10.192;2023-04-24T13:34:54;13.50;36.30
40534;DHT22;26233;51.894;10.192;2023-04-24T13:37:21;13.50;36.50
40534;DHT22;26233;51.894;10.192;2023-04-24T13:39:48;13.40;36.50
40534;DHT22;26233;51.894;10.192;2023-04-24T13:42:16;13.40;36.70
40534;DHT22;26233;51.894;10.192;2023-04-24T13:44:44;13.40;36.80
40534;DHT22;26233;51.894;10.192;2023-04-24T13:47:11;13.30;36.70
40534;DHT22;26233;51.894;10.192;2023-04-24T13:49:39;13.30;36.80
40534;DHT22;26233;51.894;10.192;2023-04-24T13:52:06;13.30;36.80
40534;DHT22;26233;51.894;10.192;2023-04-24T13:54:35;13.20;36.80
40534;DHT22;26233;51.894;10.192;2023-04-24T13:57:03;13.20;36.80
40534;DHT22;26233;51.894;10.192;2023-04-24T13:59:30;13.10;36.80
40534;DHT22;26233;51.894;10.192;2023-04-24T14:01:57;13.00;36.80
40534;DHT22;26233;51.894;10.192;2023-04-24T14:04:24;13.00;37.00
40534;DHT22;26233;51.894;10.192;2023-04-24T14:06:52;13.00;37.20
40534;DHT22;26233;51.894;10.192;2023-04-24T14:09:19;12.90;37.20
40534;DHT22;26233;51.894;10.192;2023-04-24T14:11:46;12.90;37.30
40534;DHT22;26233;51.894;10.192;2023-04-24T14:14:13;12.80;37.40
40534;DHT22;26233;51.894;10.192;2023-04-24T14:16:40;12.80;37.40
40534;DHT22;26233;51.894;10.192;2023-04-24T14:19:07;12.70;37.60
40534;DHT22;26233;51.894;10.192;2023-04-24T14:21:34;12.60;37.50
40534;DHT22;26233;51.894;10.192;2023-04-24T14:24:03;12.60;37.70
40534;DHT22;26233;51.894;10.192;2023-04-24T14:26:30;12.50;38.00
40534;DHT22;26233;51.894;10.192;2023-04-24T14:28:58;12.50;38.00
40534;DHT22;26233;51.894;10.192;2023-04-24T14:31:25;12.40;37.90
40534;DHT22;26233;51.894;10.192;2023-04-24T14:33:52;12.40;37.90
40534;DHT22;26233;51.894;10.192;2023-04-24T14:36:19;12.40;38.00
40534;DHT22;26233;51.894;10.192;2023-04-24T14:38:46;12.30;38.00
40534;DHT22;26233;51.894;10.192;2023-04-24T14:41:14;12.30;38.20
40534;DHT22;26233;51.894;10.192;2023-04-24T14:43:41;12.30;38.40
40534;DHT22;26233;51.894;10.192;2023-04-24T14:46:08;12.30;38.20
40534;DHT22;26233;51.894;10.192;2023-04-24T14:48:35;12.30;38.20
40534;DHT22;26233;51.894;10.192;2023-04-24T14:51:02;12.30;38.40
40534;DHT22;26233;51.894;10.192;2023-04-24T14:53:29;12.30;38.30
40534;DHT22;26233;51.894;10.192;2023-04-24T14:55:57;12.20;38.30
40534;DHT22;26233;51.894;10.192;2023-04-24T14:58:25;12.20;38.30
40534;DHT22;26233;51.894;10.192;2023-04-24T15:00:52;12.30;38.50
40534;DHT22;26233;51.894;10.192;2023-04-24T15:03:20;12.20;38.30
40534;DHT22;26233;51.894;10.192;2023-04-24T15:05:47;12.20;38.40
40534;DHT22;26233;51.894;10.192;2023-04-24T15:08:14;12.20;38.40
40534;DHT22;26233;51.894;10.192;2023-04-24T15:10:41;12.20;38.40
40534;DHT22;26233;51.894;10.192;2023-04-24T15:13:08;12.20;38.50
40534;DHT22;26233;51.894;10.192;2023-04-24T15:15:37;12.20;38.30
40534;DHT22;26233;51.894;10.192;2023-04-24T15:18:04;12.20;38.30
40534;DHT22;26233;51.894;10.192;2023-04-24T15:20:34;12.10;38.30
40534;DHT22;26233;51.894;10.192;2023-04-24T15:23:01;12.10;38.30